This is the latest recevied weather packets stored in our database for station/object K7FLA. If no packets are shown the sender has not sent any weather packets the latest 1 day(s).
| Time | Temp. | Humidity | Pressure | Rain* | Wind** | Luminosity | Snow |
|---|---|---|---|---|---|---|---|
| 1778081714 | 18.89° C | 50% | 1098.2 hPa | 0 mm | - | 383 W/m² | - |
| 1778080201 | 18.33° C | 52% | 1098.2 hPa | 0 mm | - | 294 W/m² | - |
| 1778079594 | 16.67° C | 56% | 1098.2 hPa | 0 mm | - | 217 W/m² | - |
| 1778078079 | 15° C | 69% | 1098.3 hPa | 0 mm | - | 102 W/m² | - |
| 1778077778 | 14.44° C | 72% | 1098.2 hPa | 0 mm | - | 91 W/m² | - |
| 1778077475 | 13.89° C | 73% | 1098 hPa | 0 mm | - | 80 W/m² | - |
| 1778076266 | 11.11° C | 86% | 1097.9 hPa | 0 mm | - | 57 W/m² | - |
| 1778075052 | 8.33° C | 93% | 1097.7 hPa | 0 mm | - | 38 W/m² | - |
| 1778074446 | 7.22° C | 93% | 1097.8 hPa | 0 mm | - | 30 W/m² | - |
| 1778073840 | 7.22° C | 93% | 1097.6 hPa | 0 mm | - | 18 W/m² | - |
| 1778073538 | 7.22° C | 94% | 1097.7 hPa | 0 mm | - | 15 W/m² | - |
| 1778072931 | 7.22° C | 94% | 1097.5 hPa | 0 mm | - | 9 W/m² | - |
| 1778071418 | 7.22° C | 94% | 1097.4 hPa | 0 mm | - | 0 W/m² | - |
| 1778071116 | 7.22° C | 94% | 1097.3 hPa | 0 mm | - | 0 W/m² | - |
| 1778070511 | 7.22° C | 94% | 1097.1 hPa | 0 mm | - | 0 W/m² | - |
| 1778069906 | 7.22° C | 93% | 1097.3 hPa | 0 mm | - | 0 W/m² | - |
| 1778069300 | 7.22° C | 92% | 1097.4 hPa | 0 mm | - | 0 W/m² | - |
| 1778068998 | 7.22° C | 92% | 1097.3 hPa | 0 mm | - | 0 W/m² | - |
| 1778068394 | 7.22° C | 93% | 1097.3 hPa | 0 mm | - | 0 W/m² | - |
| 1778065588 | 7.78° C | 91% | 1097 hPa | 0 mm | - | 0 W/m² | - |
| 1778065285 | 7.78° C | 91% | 1096.9 hPa | 0 mm | - | 0 W/m² | - |
| 1778064377 | 8.33° C | 90% | 1097.1 hPa | 0 mm | - | 0 W/m² | - |
| 1778064074 | 8.33° C | 90% | 1097 hPa | 0 mm | - | 0 W/m² | - |
| 1778063771 | 8.33° C | 90% | 1096.9 hPa | 0 mm | - | 0 W/m² | - |
| 1778063468 | 8.33° C | 90% | 1096.9 hPa | 0 mm | - | 0 W/m² | - |
* Rain latest hour (hover to see other rain measurements)
** Current wind speed in m/s (hover to see current wind gust speed)